Time;durP1;ratioP1;P1;durP2;ratioP2;P2;SDS_P1;SDS_P2;PMS_P1;PMS_P2;Temp;Humidity;BMP_temperature;BMP_pressure;BME280_temperature;BME280_humidity;BME280_pressure;Samples;Min_cycle;Max_cycle;Signal;HPM_P1;HPM_P2
2022/01/10 00:00:13;;;;;;;15.63;8.43;;;3.90;72.50;;;;;;5063553;28;20040;-86
2022/01/10 00:02:41;;;;;;;16.20;9.95;;;3.90;72.50;;;;;;5033036;28;20029;-86
2022/01/10 00:05:07;;;;;;;16.63;10.27;;;3.90;72.40;;;;;;5032659;28;20102;-86
2022/01/10 00:07:33;;;;;;;15.77;10.03;;;3.90;72.30;;;;;;5028510;28;20404;-86
2022/01/10 00:09:58;;;;;;;15.77;10.07;;;3.90;72.40;;;;;;5028448;28;20041;-85
2022/01/10 00:12:24;;;;;;;18.50;10.70;;;3.90;72.50;;;;;;5032777;28;20030;-86
2022/01/10 00:14:50;;;;;;;22.60;12.60;;;3.90;72.40;;;;;;5031605;28;20068;-86
2022/01/10 00:17:15;;;;;;;12.30;8.30;;;3.90;72.40;;;;;;5039577;28;20037;-86
2022/01/10 00:19:41;;;;;;;10.47;7.63;;;3.90;72.30;;;;;;5032394;28;20021;-86
2022/01/10 00:22:08;;;;;;;8.90;6.07;;;3.90;72.30;;;;;;5030575;28;20036;-86
2022/01/10 00:24:34;;;;;;;14.67;7.03;;;3.90;72.20;;;;;;5032780;28;20476;-86
2022/01/10 00:27:00;;;;;;;11.97;6.87;;;3.90;72.00;;;;;;5032075;28;20396;-86
2022/01/10 00:29:26;;;;;;;10.07;7.67;;;3.90;72.20;;;;;;5032442;28;20044;-86
2022/01/10 00:31:51;;;;;;;12.90;8.60;;;3.90;72.20;;;;;;5031350;28;20036;-86
2022/01/10 00:34:17;;;;;;;19.40;13.20;;;3.90;72.20;;;;;;5037997;28;20025;-86
2022/01/10 00:36:43;;;;;;;22.90;15.53;;;3.90;72.40;;;;;;5049183;28;20029;-86
2022/01/10 00:39:09;;;;;;;23.83;15.03;;;4.00;72.60;;;;;;5034669;28;20428;-86
2022/01/10 00:41:35;;;;;;;22.30;15.33;;;4.00;72.40;;;;;;5031623;28;20124;-86
2022/01/10 00:44:01;;;;;;;17.60;12.50;;;4.00;72.30;;;;;;5032379;28;20543;-86
2022/01/10 00:46:28;;;;;;;19.33;13.03;;;4.00;72.20;;;;;;5032514;28;20399;-86
2022/01/10 00:48:55;;;;;;;16.13;11.23;;;4.00;72.20;;;;;;5030937;28;20583;-86
2022/01/10 00:51:21;;;;;;;17.47;12.37;;;4.00;72.30;;;;;;5006566;28;20037;-86
2022/01/10 00:53:50;;;;;;;14.60;8.93;;;3.90;72.30;;;;;;5032170;28;20029;-86
2022/01/10 00:56:16;;;;;;;15.93;10.80;;;4.00;72.30;;;;;;5031139;28;20109;-86
2022/01/10 00:58:42;;;;;;;15.33;8.30;;;4.00;72.20;;;;;;5032522;28;20029;-86
2022/01/10 01:01:07;;;;;;;14.70;8.83;;;3.90;72.10;;;;;;5031978;28;20032;-86
2022/01/10 01:03:34;;;;;;;21.47;13.70;;;3.90;72.10;;;;;;5031393;28;20030;-86
2022/01/10 01:06:00;;;;;;;22.90;14.50;;;3.90;72.20;;;;;;5027433;28;20404;-86
2022/01/10 01:08:31;;;;;;;22.77;15.13;;;3.80;72.20;;;;;;5032716;28;20087;-86
2022/01/10 01:13:50;;;;;;;22.50;16.40;;;3.80;72.20;;;;;;5013702;28;20080;-86
2022/01/10 01:16:29;;;;;;;20.43;15.30;;;3.80;72.40;;;;;;5027650;28;20488;-86
2022/01/10 01:19:11;;;;;;;20.87;14.00;;;3.80;72.40;;;;;;5021380;28;20029;-86
2022/01/10 01:24:21;;;;;;;9.77;7.10;;;3.80;72.40;;;;;;5032933;28;20060;-86
2022/01/10 01:26:49;;;;;;;12.13;6.73;;;3.80;72.60;;;;;;5031089;28;20030;-85
2022/01/10 01:29:22;;;;;;;18.60;10.83;;;3.80;72.70;;;;;;5031219;28;20172;-86
2022/01/10 01:31:48;;;;;;;14.27;9.47;;;3.80;72.60;;;;;;5029540;28;20029;-86
2022/01/10 01:34:15;;;;;;;13.90;9.70;;;3.80;72.40;;;;;;5030290;28;20439;-86
2022/01/10 01:36:45;;;;;;;18.03;9.80;;;3.90;72.90;;;;;;5031998;28;20032;-86
2022/01/10 01:39:21;;;;;;;15.67;8.43;;;3.90;72.20;;;;;;5014746;28;20183;-86
2022/01/10 01:42:01;;;;;;;16.63;11.70;;;3.90;72.10;;;;;;5033044;28;20174;-86
2022/01/10 01:44:27;;;;;;;15.37;10.13;;;3.90;72.30;;;;;;5049888;28;20192;-86
2022/01/10 01:46:52;;;;;;;14.90;10.77;;;3.80;72.20;;;;;;5030841;28;20103;-86
2022/01/10 01:49:18;;;;;;;26.50;10.90;;;3.80;72.30;;;;;;5030877;28;20021;-86
2022/01/10 01:51:45;;;;;;;18.10;11.40;;;3.90;72.90;;;;;;5028973;28;20057;-86
2022/01/10 01:54:11;;;;;;;16.33;11.73;;;4.00;72.40;;;;;;5031126;28;20025;-86
2022/01/10 01:56:39;;;;;;;16.73;11.37;;;4.00;72.30;;;;;;5029981;28;20022;-86
2022/01/10 01:59:07;;;;;;;9.80;6.93;;;4.00;72.50;;;;;;5047127;28;20028;-86
2022/01/10 02:01:33;;;;;;;11.60;7.43;;;4.00;72.40;;;;;;5062910;28;20029;-86
2022/01/10 02:03:59;;;;;;;16.90;8.57;;;4.00;72.40;;;;;;5027410;28;20365;-86
2022/01/10 02:06:26;;;;;;;15.27;9.53;;;4.00;72.20;;;;;;5016977;28;20057;-86
2022/01/10 02:08:52;;;;;;;12.37;8.07;;;4.00;72.10;;;;;;5027007;28;20030;-86
2022/01/10 02:11:18;;;;;;;15.37;9.40;;;4.00;72.20;;;;;;5038973;28;20087;-86
2022/01/10 02:13:45;;;;;;;19.47;12.93;;;4.00;72.10;;;;;;5030758;28;20029;-86
2022/01/10 02:16:16;;;;;;;21.40;11.90;;;4.00;72.10;;;;;;5036106;28;20431;-85
2022/01/10 02:18:42;;;;;;;17.63;10.90;;;4.10;72.10;;;;;;5019319;28;20472;-86
2022/01/10 02:21:09;;;;;;;21.43;14.10;;;4.10;72.00;;;;;;5043628;28;20029;-86
2022/01/10 02:23:36;;;;;;;21.77;15.13;;;4.10;71.90;;;;;;5018859;28;20017;-86
2022/01/10 02:26:02;;;;;;;22.80;16.43;;;4.10;72.00;;;;;;5029866;28;20017;-86
2022/01/10 02:28:28;;;;;;;29.77;18.23;;;4.10;72.10;;;;;;5030720;28;20388;-86
2022/01/10 02:30:57;;;;;;;26.47;17.87;;;4.10;72.20;;;;;;5028956;28;20026;-86
2022/01/10 02:33:29;;;;;;;25.13;17.37;;;4.10;72.20;;;;;;5028235;28;20095;-86
2022/01/10 02:38:25;;;;;;;28.50;19.27;;;4.10;72.30;;;;;;5032140;28;20022;-86
2022/01/10 02:40:52;;;;;;;24.23;18.17;;;4.10;72.30;;;;;;5038256;28;20040;-86
2022/01/10 02:43:18;;;;;;;27.20;17.77;;;4.10;72.30;;;;;;5063936;28;20028;-86
2022/01/10 02:45:45;;;;;;;29.33;19.53;;;4.00;72.30;;;;;;5046972;28;20033;-86
2022/01/10 02:48:11;;;;;;;27.70;17.90;;;4.10;72.50;;;;;;5031009;28;20033;-86
2022/01/10 02:50:37;;;;;;;27.20;18.30;;;4.10;72.50;;;;;;5031331;28;20040;-85
2022/01/10 02:53:03;;;;;;;28.27;17.47;;;4.10;72.50;;;;;;5041098;28;20432;-86
2022/01/10 02:55:29;;;;;;;26.53;17.77;;;4.10;72.50;;;;;;5013416;28;20033;-86
2022/01/10 02:57:56;;;;;;;26.37;18.23;;;4.10;72.50;;;;;;5029958;28;20029;-86
2022/01/10 03:00:24;;;;;;;27.53;17.97;;;4.10;72.50;;;;;;5028690;28;20021;-86
2022/01/10 03:02:52;;;;;;;31.13;18.80;;;4.10;72.60;;;;;;5029937;28;20124;-86
2022/01/10 03:05:21;;;;;;;29.60;18.60;;;4.10;72.50;;;;;;5029811;28;20408;-86
2022/01/10 03:07:51;;;;;;;29.87;20.93;;;4.20;72.60;;;;;;5030623;28;20032;-86
2022/01/10 03:10:17;;;;;;;31.00;19.37;;;4.10;72.50;;;;;;5013539;28;20404;-86
2022/01/10 03:12:43;;;;;;;30.47;19.20;;;4.10;72.50;;;;;;5031207;28;20025;-86
2022/01/10 03:15:10;;;;;;;35.83;19.97;;;4.10;72.50;;;;;;5033000;28;20032;-86
2022/01/10 03:17:37;;;;;;;33.03;20.07;;;4.20;72.70;;;;;;5033601;28;20555;-86
2022/01/10 03:20:04;;;;;;;28.03;19.67;;;4.20;72.60;;;;;;5032358;28;20118;-86
2022/01/10 03:22:31;;;;;;;31.90;19.87;;;4.10;72.60;;;;;;5033244;28;20531;-86
2022/01/10 03:24:58;;;;;;;28.77;20.17;;;4.20;72.70;;;;;;5034585;28;20034;-86
2022/01/10 03:27:24;;;;;;;31.60;20.13;;;4.10;72.70;;;;;;5033008;28;20026;-86
2022/01/10 03:29:51;;;;;;;27.30;18.73;;;4.10;72.70;;;;;;5033502;28;20033;-86
2022/01/10 03:32:17;;;;;;;26.83;19.57;;;4.10;72.70;;;;;;5016925;28;20022;-86
2022/01/10 03:34:43;;;;;;;29.37;19.33;;;4.20;72.80;;;;;;5014087;28;20500;-86
2022/01/10 03:37:09;;;;;;;28.57;19.50;;;4.20;72.90;;;;;;5016350;28;20053;-86
2022/01/10 03:39:35;;;;;;;29.07;19.50;;;4.20;72.70;;;;;;5033906;28;20025;-86
2022/01/10 03:42:02;;;;;;;24.53;18.57;;;4.20;72.70;;;;;;5032712;28;20511;-86
2022/01/10 03:44:28;;;;;;;29.70;18.40;;;4.20;72.70;;;;;;5033143;28;20027;-86
2022/01/10 03:46:56;;;;;;;23.47;16.80;;;4.20;72.80;;;;;;5035704;28;20033;-86
2022/01/10 03:49:24;;;;;;;25.70;18.00;;;4.20;72.80;;;;;;5050974;28;20036;-86
2022/01/10 03:51:50;;;;;;;26.03;17.97;;;4.20;72.80;;;;;;5033919;28;20109;-86
2022/01/10 03:54:17;;;;;;;27.10;18.23;;;4.20;72.90;;;;;;5035626;28;20055;-86
2022/01/10 03:56:44;;;;;;;28.30;19.20;;;4.10;73.50;;;;;;5041626;28;20032;-86
2022/01/10 03:59:10;;;;;;;32.80;17.87;;;4.20;73.10;;;;;;5041219;28;20033;-84
2022/01/10 04:01:38;;;;;;;31.23;18.57;;;4.20;73.00;;;;;;5048265;28;20032;-87
2022/01/10 04:04:08;;;;;;;26.43;18.50;;;4.20;73.00;;;;;;5034743;28;20112;-86
2022/01/10 04:06:34;;;;;;;28.37;16.73;;;4.10;72.80;;;;;;5033957;28;20033;-86
2022/01/10 04:09:00;;;;;;;29.57;19.13;;;4.10;73.00;;;;;;5034049;28;20033;-86
2022/01/10 04:11:26;;;;;;;26.83;18.50;;;4.10;73.10;;;;;;5032197;28;20045;-86
2022/01/10 04:13:52;;;;;;;26.60;17.70;;;4.10;73.20;;;;;;5027929;28;20026;-86
2022/01/10 04:16:19;;;;;;;26.83;17.37;;;4.10;73.30;;;;;;5036137;28;20104;-86
2022/01/10 04:18:44;;;;;;;30.73;18.70;;;4.10;73.20;;;;;;5033599;28;20104;-86
2022/01/10 04:21:10;;;;;;;28.00;17.57;;;4.00;72.90;;;;;;5048153;28;20117;-86
2022/01/10 04:23:37;;;;;;;25.13;17.00;;;4.10;73.10;;;;;;5028612;28;20436;-86
2022/01/10 04:26:03;;;;;;;28.10;17.53;;;4.00;73.20;;;;;;5030658;28;20018;-86
2022/01/10 04:28:29;;;;;;;24.33;16.77;;;4.10;73.10;;;;;;5031387;28;20029;-86
2022/01/10 04:30:55;;;;;;;26.77;14.73;;;4.10;73.10;;;;;;5032660;28;20087;-86
2022/01/10 04:33:27;;;;;;;23.57;15.40;;;4.10;73.20;;;;;;5028298;28;20035;-86
2022/01/10 04:35:52;;;;;;;22.23;15.30;;;4.10;73.20;;;;;;5022318;28;20075;-86
2022/01/10 04:38:18;;;;;;;22.37;15.23;;;4.10;73.10;;;;;;5029757;28;20399;-85
2022/01/10 04:40:44;;;;;;;19.10;13.80;;;4.10;73.00;;;;;;5034873;28;20029;-86
2022/01/10 04:43:10;;;;;;;22.20;15.50;;;4.10;73.10;;;;;;5031908;28;20596;-86
2022/01/10 04:45:36;;;;;;;24.73;14.17;;;4.10;73.00;;;;;;5024432;28;20393;-86
2022/01/10 04:48:02;;;;;;;19.63;12.97;;;4.00;72.90;;;;;;5028799;28;20034;-86
2022/01/10 04:51:01;;;;;;;21.50;11.80;;;4.00;72.90;;;;;;5031685;28;20037;-86
2022/01/10 04:53:20;;;;;;;26.50;16.50;;;4.00;73.00;;;;;;5030183;28;20491;-86
2022/01/10 04:55:46;;;;;;;23.30;15.20;;;4.00;72.90;;;;;;5015149;28;20026;-86
2022/01/10 04:58:12;;;;;;;24.93;14.70;;;4.00;73.10;;;;;;5051286;28;20495;-86
2022/01/10 05:00:37;;;;;;;23.77;15.33;;;4.00;73.30;;;;;;5054932;28;20725;-85
2022/01/10 05:03:03;;;;;;;30.00;18.57;;;4.00;73.20;;;;;;5031808;28;20049;-86
2022/01/10 05:05:29;;;;;;;29.53;18.10;;;4.00;73.10;;;;;;5031620;28;20033;-86
2022/01/10 05:07:54;;;;;;;24.13;17.83;;;4.00;73.10;;;;;;5031522;28;20388;-86
2022/01/10 05:10:20;;;;;;;26.50;17.50;;;4.00;73.10;;;;;;5028072;28;20037;-86
2022/01/10 05:12:46;;;;;;;27.40;16.90;;;4.00;73.10;;;;;;5015765;28;20033;-86
2022/01/10 05:15:12;;;;;;;25.90;14.63;;;4.00;73.10;;;;;;5031333;28;20439;-86
2022/01/10 05:17:37;;;;;;;23.20;13.10;;;4.00;73.20;;;;;;5031106;28;20072;-86
2022/01/10 05:20:05;;;;;;;11.70;7.50;;;4.10;73.10;;;;;;5030293;28;20536;-86
2022/01/10 05:22:31;;;;;;;9.73;6.67;;;4.10;73.00;;;;;;5031791;28;20025;-86
2022/01/10 05:24:57;;;;;;;11.63;5.80;;;4.00;72.90;;;;;;5029635;28;20029;-86
2022/01/10 05:27:22;;;;;;;10.70;5.97;;;4.00;72.70;;;;;;5029025;28;20500;-85
2022/01/10 05:29:48;;;;;;;10.27;6.07;;;4.10;72.80;;;;;;5030752;28;20094;-86
2022/01/10 05:32:14;;;;;;;9.47;5.70;;;4.10;72.70;;;;;;5031539;28;20060;-86
2022/01/10 05:34:41;;;;;;;13.87;6.00;;;4.10;72.60;;;;;;5030849;28;20037;-86
2022/01/10 05:37:07;;;;;;;9.27;5.30;;;4.10;72.50;;;;;;5030787;28;20164;-86
2022/01/10 05:39:34;;;;;;;10.03;5.33;;;4.10;72.50;;;;;;5030978;28;20539;-86
2022/01/10 05:41:59;;;;;;;12.23;6.50;;;4.10;72.50;;;;;;5031376;28;20041;-86
2022/01/10 05:44:26;;;;;;;13.77;7.07;;;4.10;72.40;;;;;;5030920;28;20037;-86
2022/01/10 05:46:53;;;;;;;17.40;11.10;;;4.10;72.40;;;;;;5030401;28;20103;-86
2022/01/10 05:49:25;;;;;;;21.80;12.93;;;4.00;72.20;;;;;;5031046;28;20083;-86
2022/01/10 05:51:51;;;;;;;19.42;12.55;;;4.00;72.30;;;;;;5030857;28;20044;-86
2022/01/10 05:54:17;;;;;;;18.83;12.43;;;4.00;72.50;;;;;;5025382;28;20030;-86
2022/01/10 05:56:43;;;;;;;19.53;12.20;;;4.00;72.60;;;;;;5026581;28;20101;-86
2022/01/10 05:59:09;;;;;;;17.93;12.77;;;4.00;72.80;;;;;;5027736;28;20120;-86
2022/01/10 06:01:34;;;;;;;24.77;13.67;;;4.00;72.70;;;;;;5030837;28;20036;-86
2022/01/10 06:04:00;;;;;;;23.70;15.13;;;4.00;72.70;;;;;;5012759;28;20037;-86
2022/01/10 06:06:26;;;;;;;52.53;27.07;;;4.00;72.50;;;;;;5035298;28;20087;-86
2022/01/10 06:08:52;;;;;;;43.87;24.90;;;3.90;72.60;;;;;;5030876;28;20025;-86
2022/01/10 06:11:17;;;;;;;29.53;18.33;;;4.00;72.90;;;;;;5031714;28;20036;-86
2022/01/10 06:13:43;;;;;;;32.57;19.77;;;4.00;72.90;;;;;;5045326;28;20358;-85
2022/01/10 06:16:09;;;;;;;29.40;19.23;;;4.00;72.90;;;;;;5029361;28;20048;-86
2022/01/10 06:18:35;;;;;;;28.17;18.53;;;4.00;72.90;;;;;;5027353;28;20049;-86
2022/01/10 06:21:01;;;;;;;29.57;19.40;;;4.00;72.80;;;;;;5045000;28;20022;-86
2022/01/10 06:23:26;;;;;;;29.17;20.23;;;4.00;72.70;;;;;;5030469;28;20021;-86
2022/01/10 06:25:52;;;;;;;36.57;19.47;;;4.10;72.80;;;;;;5026427;28;20041;-86
2022/01/10 06:28:18;;;;;;;30.77;18.23;;;4.10;72.70;;;;;;5030067;28;20025;-86
2022/01/10 06:30:45;;;;;;;26.93;16.97;;;4.00;72.90;;;;;;5037057;28;20077;-86
2022/01/10 06:33:11;;;;;;;25.57;16.53;;;4.10;73.00;;;;;;5045376;28;20056;-86
2022/01/10 06:35:37;;;;;;;24.13;15.63;;;4.10;73.10;;;;;;5046062;28;20029;-86
2022/01/10 06:38:03;;;;;;;20.63;14.27;;;4.10;72.90;;;;;;5044459;28;20029;-86
2022/01/10 06:40:29;;;;;;;19.30;13.80;;;4.10;72.90;;;;;;5029612;28;20128;-86
2022/01/10 06:42:55;;;;;;;21.30;13.63;;;4.10;72.80;;;;;;5041242;28;20077;-85
2022/01/10 06:45:21;;;;;;;21.77;12.97;;;4.10;72.60;;;;;;5045867;28;20436;-86
2022/01/10 06:47:47;;;;;;;22.57;13.53;;;4.10;72.60;;;;;;5031945;28;20035;-86
2022/01/10 06:50:13;;;;;;;22.80;14.00;;;4.10;72.50;;;;;;5050029;28;20451;-86
2022/01/10 06:52:39;;;;;;;25.83;17.10;;;4.10;72.60;;;;;;5030442;28;20113;-86
2022/01/10 06:55:05;;;;;;;31.67;19.53;;;4.10;72.50;;;;;;5033883;28;20477;-86
2022/01/10 06:57:31;;;;;;;34.03;18.80;;;4.10;72.40;;;;;;5029998;28;20021;-86
2022/01/10 06:59:57;;;;;;;33.77;19.03;;;4.10;72.60;;;;;;5033875;28;20500;-86
2022/01/10 07:02:23;;;;;;;31.27;19.60;;;4.10;72.60;;;;;;5033296;28;20447;-86
2022/01/10 07:04:48;;;;;;;32.97;20.40;;;4.10;72.60;;;;;;5046677;28;20033;-86
2022/01/10 07:07:14;;;;;;;35.93;21.80;;;4.10;72.80;;;;;;5033328;28;20087;-86
2022/01/10 07:09:40;;;;;;;36.00;21.77;;;4.10;72.70;;;;;;5033010;28;20029;-86
2022/01/10 07:12:06;;;;;;;39.10;22.23;;;4.10;72.80;;;;;;5033986;28;20033;-86
2022/01/10 07:14:34;;;;;;;42.67;24.13;;;4.10;72.80;;;;;;5033926;28;20022;-86
2022/01/10 07:17:01;;;;;;;31.80;22.37;;;4.10;72.90;;;;;;5033070;28;20033;-86
2022/01/10 07:19:27;;;;;;;40.43;29.13;;;4.10;73.10;;;;;;5016709;28;20106;-86
2022/01/10 07:21:54;;;;;;;35.87;25.73;;;4.10;72.90;;;;;;5027789;28;20021;-86
2022/01/10 07:24:20;;;;;;;35.50;24.33;;;4.10;73.10;;;;;;5031743;28;20052;-86
2022/01/10 07:26:46;;;;;;;38.07;24.43;;;4.10;73.00;;;;;;5034389;28;20029;-86
2022/01/10 07:29:12;;;;;;;31.43;21.93;;;4.10;72.90;;;;;;5032655;28;20048;-86
2022/01/10 07:31:40;;;;;;;42.23;23.83;;;4.20;73.10;;;;;;5032356;28;20104;-86
2022/01/10 07:34:07;;;;;;;36.63;24.30;;;4.20;73.00;;;;;;5033856;28;20053;-86
2022/01/10 07:36:35;;;;;;;39.10;22.87;;;4.20;72.90;;;;;;5032433;28;20017;-86
2022/01/10 07:39:02;;;;;;;38.47;23.37;;;4.20;72.90;;;;;;5033592;28;20392;-86
2022/01/10 07:41:28;;;;;;;38.73;21.90;;;4.20;73.00;;;;;;5029969;28;20117;-86
2022/01/10 07:43:56;;;;;;;38.37;23.23;;;4.20;73.00;;;;;;5033210;28;20116;-87
2022/01/10 07:46:23;;;;;;;37.63;23.17;;;4.20;73.00;;;;;;5031825;28;20026;-86
2022/01/10 07:48:49;;;;;;;37.70;21.73;;;4.20;73.00;;;;;;5036626;28;20558;-86
2022/01/10 07:51:15;;;;;;;38.60;24.03;;;4.20;73.00;;;;;;5049839;28;20108;-86
2022/01/10 07:53:42;;;;;;;37.10;24.27;;;4.20;73.50;;;;;;5033019;28;20104;-86
2022/01/10 07:56:07;;;;;;;33.43;24.67;;;4.20;73.00;;;;;;5036043;28;20017;-86
2022/01/10 07:58:35;;;;;;;40.37;24.40;;;4.20;73.00;;;;;;5032190;28;20035;-86
2022/01/10 08:01:01;;;;;;;27.57;16.87;;;4.20;73.00;;;;;;5032760;28;20032;-86
2022/01/10 08:03:27;;;;;;;23.17;16.13;;;4.20;73.00;;;;;;5029950;28;20049;-86
2022/01/10 08:05:53;;;;;;;22.97;15.63;;;4.10;72.90;;;;;;5032682;28;20026;-86
2022/01/10 08:08:19;;;;;;;30.40;17.50;;;4.10;73.20;;;;;;5033141;28;20029;-86
2022/01/10 08:10:45;;;;;;;24.97;18.33;;;4.20;73.30;;;;;;5032675;28;20116;-86
2022/01/10 08:13:10;;;;;;;24.83;16.73;;;4.20;73.00;;;;;;5032606;28;20037;-86
2022/01/10 08:15:36;;;;;;;24.93;17.13;;;4.30;72.90;;;;;;5044029;28;21249;-86
2022/01/10 08:18:04;;;;;;;30.33;18.73;;;4.30;72.90;;;;;;5032975;28;20034;-85
2022/01/10 08:20:29;;;;;;;26.43;17.23;;;4.30;72.80;;;;;;5032676;28;20025;-86
2022/01/10 08:22:55;;;;;;;30.87;17.13;;;4.30;72.70;;;;;;5032856;28;20509;-86
2022/01/10 08:25:21;;;;;;;25.83;16.90;;;4.30;72.60;;;;;;5032514;28;20065;-86
2022/01/10 08:27:47;;;;;;;25.53;17.43;;;4.30;72.50;;;;;;5032568;28;20536;-86
2022/01/10 08:30:13;;;;;;;26.87;16.97;;;4.40;72.40;;;;;;5031644;28;20053;-86
2022/01/10 08:32:39;;;;;;;27.23;17.50;;;4.40;72.30;;;;;;5031712;28;20385;-86
2022/01/10 08:35:07;;;;;;;23.17;16.43;;;4.30;72.20;;;;;;5033824;28;20030;-86
2022/01/10 08:37:33;;;;;;;27.20;16.43;;;4.30;72.60;;;;;;5009849;28;20025;-86
2022/01/10 08:39:59;;;;;;;28.20;20.17;;;4.30;72.00;;;;;;5029923;28;20661;-86
2022/01/10 08:42:28;;;;;;;21.60;14.33;;;4.30;72.00;;;;;;5028200;28;20026;-86
2022/01/10 08:44:53;;;;;;;22.10;13.87;;;4.30;71.80;;;;;;5031062;28;20048;-86
2022/01/10 08:47:20;;;;;;;29.57;16.50;;;4.30;71.60;;;;;;5030859;28;20111;-85
2022/01/10 08:49:47;;;;;;;47.47;24.77;;;4.30;71.50;;;;;;5029344;28;20393;-86
2022/01/10 08:52:13;;;;;;;21.43;13.30;;;4.40;71.30;;;;;;5030715;28;20502;-86
2022/01/10 08:54:39;;;;;;;14.57;10.10;;;4.40;70.90;;;;;;5029262;28;20053;-86
2022/01/10 08:57:05;;;;;;;16.30;9.20;;;4.40;70.70;;;;;;5033064;28;20107;-86
2022/01/10 08:59:31;;;;;;;14.80;9.07;;;4.40;70.40;;;;;;5045661;28;20034;-86
2022/01/10 09:01:58;;;;;;;17.37;9.33;;;4.40;70.30;;;;;;5031253;28;20512;-86
2022/01/10 09:04:25;;;;;;;14.40;8.67;;;4.40;70.00;;;;;;5033342;28;20045;-86
2022/01/10 09:06:54;;;;;;;14.60;9.50;;;4.40;69.90;;;;;;5048292;28;20436;-86
2022/01/10 09:09:22;;;;;;;16.00;8.93;;;4.40;69.70;;;;;;5044541;28;20578;-86
2022/01/10 09:11:49;;;;;;;14.83;8.43;;;4.50;69.60;;;;;;5031726;28;20029;-86
2022/01/10 09:14:15;;;;;;;19.00;10.73;;;4.50;69.40;;;;;;5031328;28;20022;-86
2022/01/10 09:16:43;;;;;;;24.33;12.77;;;4.50;69.30;;;;;;5038886;28;20476;-86
2022/01/10 09:19:09;;;;;;;19.07;11.37;;;4.50;69.20;;;;;;5040685;28;20029;-87
2022/01/10 09:21:36;;;;;;;24.37;13.20;;;4.50;69.20;;;;;;5044330;28;20105;-86
2022/01/10 09:24:03;;;;;;;16.67;10.00;;;4.50;69.10;;;;;;5057124;28;20037;-85
2022/01/10 09:26:29;;;;;;;13.53;8.40;;;4.60;69.00;;;;;;5038057;28;20473;-86
2022/01/10 09:28:55;;;;;;;15.27;9.10;;;4.60;68.80;;;;;;5018112;28;20037;-86
2022/01/10 09:31:22;;;;;;;26.37;14.93;;;4.60;68.40;;;;;;5039383;28;20109;-86
2022/01/10 09:33:53;;;;;;;18.03;10.50;;;4.50;68.50;;;;;;5031600;28;20136;-86
2022/01/10 09:36:20;;;;;;;15.67;10.67;;;4.60;68.60;;;;;;5029846;28;20061;-86
2022/01/10 09:38:46;;;;;;;17.33;9.77;;;4.60;68.30;;;;;;5031012;28;20021;-86
2022/01/10 09:41:11;;;;;;;14.23;9.87;;;4.70;68.20;;;;;;5030250;28;20026;-86
2022/01/10 09:43:38;;;;;;;17.90;9.90;;;4.70;68.20;;;;;;5030446;28;20048;-86
2022/01/10 09:46:04;;;;;;;13.10;8.83;;;4.80;68.20;;;;;;5031085;28;20021;-86
2022/01/10 09:48:31;;;;;;;13.37;8.47;;;4.80;67.80;;;;;;5031080;28;20095;-86
2022/01/10 09:50:56;;;;;;;15.07;9.57;;;4.80;67.80;;;;;;5031295;28;20124;-86
2022/01/10 09:53:22;;;;;;;18.10;11.30;;;4.90;67.60;;;;;;5031858;28;20429;-86
2022/01/10 09:55:48;;;;;;;14.97;9.70;;;4.90;67.50;;;;;;5045036;28;20025;-86
2022/01/10 09:58:15;;;;;;;14.67;9.57;;;4.90;67.50;;;;;;5031330;28;20116;-86
2022/01/10 10:00:41;;;;;;;17.77;9.60;;;4.90;67.80;;;;;;5030242;28;20033;-87
2022/01/10 10:03:07;;;;;;;12.47;7.77;;;4.90;67.70;;;;;;5024418;28;20060;-87
2022/01/10 10:05:34;;;;;;;14.10;8.57;;;4.90;67.60;;;;;;5045515;28;20075;-86
2022/01/10 10:08:00;;;;;;;14.10;8.80;;;4.90;67.60;;;;;;5030976;28;20057;-86
2022/01/10 10:10:28;;;;;;;17.17;9.77;;;4.90;67.30;;;;;;5028925;28;20048;-86
2022/01/10 10:12:54;;;;;;;15.43;9.83;;;5.00;67.20;;;;;;5024753;28;20045;-86
2022/01/10 10:15:26;;;;;;;14.70;8.90;;;5.00;66.90;;;;;;5019680;28;20030;-86
2022/01/10 10:17:52;;;;;;;13.57;8.48;;;5.00;66.70;;;;;;5045222;28;20370;-86
2022/01/10 10:20:21;;;;;;;15.63;8.83;;;5.00;66.70;;;;;;5023806;28;20044;-86
2022/01/10 10:22:51;;;;;;;14.67;8.93;;;5.00;66.60;;;;;;5031401;28;20438;-86
2022/01/10 10:25:18;;;;;;;13.43;8.67;;;5.10;66.60;;;;;;5030647;28;20421;-86
2022/01/10 10:27:46;;;;;;;14.00;8.83;;;5.00;66.50;;;;;;5031331;28;20022;-86
2022/01/10 10:30:23;;;;;;;11.67;8.00;;;4.90;66.60;;;;;;5030411;28;20046;-86
2022/01/10 10:32:50;;;;;;;12.47;8.07;;;4.90;66.90;;;;;;5045353;28;20455;-86
2022/01/10 10:35:17;;;;;;;13.07;8.90;;;4.90;66.80;;;;;;5030789;28;20025;-86
2022/01/10 10:37:44;;;;;;;14.17;8.87;;;4.90;67.00;;;;;;5045521;28;20450;-86
2022/01/10 10:40:14;;;;;;;14.23;8.87;;;4.90;67.10;;;;;;5026122;28;20081;-86
2022/01/10 10:42:42;;;;;;;14.07;8.63;;;4.90;67.20;;;;;;5011195;28;20026;-86
2022/01/10 10:45:11;;;;;;;17.63;8.73;;;4.90;67.20;;;;;;5018984;28;20134;-86
2022/01/10 10:47:40;;;;;;;15.17;8.63;;;4.90;67.30;;;;;;5026710;28;20044;-87
2022/01/10 10:50:07;;;;;;;14.73;9.37;;;4.90;67.40;;;;;;5046729;28;20029;-86
2022/01/10 10:52:37;;;;;;;14.10;9.33;;;5.00;67.60;;;;;;5026814;28;20025;-86
2022/01/10 10:55:14;;;;;;;15.97;10.97;;;5.10;67.60;;;;;;5036651;28;20034;-86
2022/01/10 10:57:42;;;;;;;14.90;10.10;;;5.10;67.60;;;;;;5029277;28;20034;-86
2022/01/10 11:00:12;;;;;;;23.23;12.13;;;5.10;67.60;;;;;;5028206;28;20116;-86
2022/01/10 11:02:39;;;;;;;30.93;11.70;;;5.10;67.60;;;;;;5004173;28;20060;-87
2022/01/10 11:05:07;;;;;;;16.30;11.10;;;5.20;68.00;;;;;;5030049;28;20083;-87
2022/01/10 11:07:35;;;;;;;22.33;11.17;;;5.20;67.80;;;;;;5035179;28;20541;-87
2022/01/10 11:10:05;;;;;;;18.33;11.47;;;5.20;67.70;;;;;;5039913;28;20037;-87
2022/01/10 11:12:34;;;;;;;22.00;12.80;;;5.20;67.80;;;;;;5032411;28;20030;-87
2022/01/10 11:15:01;;;;;;;19.13;11.93;;;5.20;68.00;;;;;;5031238;28;20033;-87
2022/01/10 11:17:28;;;;;;;21.07;11.60;;;5.20;68.70;;;;;;5030921;28;20520;-87
2022/01/10 11:20:13;;;;;;;19.57;11.73;;;5.30;68.20;;;;;;5045348;28;20029;-87
2022/01/10 11:22:56;;;;;;;17.53;12.33;;;5.30;68.20;;;;;;5027454;28;20508;-87
2022/01/10 11:25:21;;;;;;;;;;;5.40;68.20;;;;;;5025487;28;20033;-88
2022/01/10 11:27:48;;;;;;;22.17;13.93;;;5.40;68.20;;;;;;5028293;28;19912;-86
2022/01/10 11:30:30;;;;;;;23.93;15.10;;;5.40;68.10;;;;;;5027866;28;20389;-86
2022/01/10 11:32:57;;;;;;;22.38;16.30;;;5.40;68.40;;;;;;5030889;28;20484;-87
2022/01/10 11:35:35;;;;;;;26.97;15.63;;;5.40;68.50;;;;;;5034671;28;20029;-87
2022/01/10 11:38:18;;;;;;;24.13;16.17;;;5.40;68.60;;;;;;5033880;28;20029;-87
2022/01/10 11:40:45;;;;;;;22.90;16.83;;;5.30;68.70;;;;;;5015342;28;20030;-86
2022/01/10 11:43:27;;;;;;;24.40;16.00;;;5.30;68.90;;;;;;5027927;28;20029;-87
2022/01/10 11:46:08;;;;;;;26.23;15.50;;;5.30;69.10;;;;;;5031184;28;20082;-87
2022/01/10 11:49:00;;;;;;;24.50;16.63;;;5.30;69.10;;;;;;5020576;28;20551;-87
2022/01/10 11:51:36;;;;;;;22.87;15.27;;;5.30;69.20;;;;;;5034232;28;20036;-87
2022/01/10 11:54:08;;;;;;;22.90;15.83;;;5.30;69.30;;;;;;5034531;28;20492;-87
2022/01/10 11:56:36;;;;;;;21.20;14.80;;;5.40;69.30;;;;;;5034049;28;20025;-87
2022/01/10 11:59:28;;;;;;;24.27;15.47;;;5.40;69.30;;;;;;5034211;28;20079;-87
2022/01/10 12:02:14;;;;;;;22.90;14.87;;;5.40;69.40;;;;;;5034593;28;20029;-86
2022/01/10 12:05:02;;;;;;;24.03;15.40;;;5.40;69.60;;;;;;5034320;28;20029;-87
2022/01/10 12:07:28;;;;;;;27.70;17.87;;;5.50;69.40;;;;;;5032925;28;20063;-86
2022/01/10 12:09:55;;;;;;;21.30;16.00;;;5.50;69.20;;;;;;5034938;28;20017;-87
2022/01/10 12:12:24;;;;;;;23.73;17.60;;;5.60;69.10;;;;;;5033725;28;20028;-87
2022/01/10 12:14:55;;;;;;;20.33;14.57;;;5.60;69.10;;;;;;5034333;28;20025;-87
2022/01/10 12:17:21;;;;;;;22.37;15.80;;;5.70;69.10;;;;;;5033410;28;20397;-86
2022/01/10 12:19:46;;;;;;;23.43;14.70;;;5.70;69.10;;;;;;5033783;28;20041;-86
2022/01/10 12:22:12;;;;;;;28.00;15.07;;;5.80;69.20;;;;;;5033734;28;20070;-87
2022/01/10 12:24:40;;;;;;;20.83;14.97;;;5.80;68.90;;;;;;5033629;28;20484;-87
2022/01/10 12:27:07;;;;;;;20.77;15.17;;;5.70;68.80;;;;;;5033506;28;20032;-87
2022/01/10 12:29:33;;;;;;;27.07;15.50;;;5.60;68.90;;;;;;5033488;28;20080;-87
2022/01/10 12:32:00;;;;;;;21.93;15.13;;;5.60;69.10;;;;;;5018364;28;20117;-87
2022/01/10 12:34:26;;;;;;;21.30;15.37;;;5.70;69.10;;;;;;5030360;28;20032;-87
2022/01/10 12:36:52;;;;;;;22.37;15.53;;;5.70;68.90;;;;;;5037409;28;20021;-87
2022/01/10 12:39:23;;;;;;;26.73;18.53;;;5.70;68.90;;;;;;5033650;28;20030;-87
2022/01/10 12:41:51;;;;;;;24.47;17.57;;;5.80;69.00;;;;;;5033595;28;20075;-87
2022/01/10 12:44:17;;;;;;;24.90;15.83;;;5.80;68.90;;;;;;5032978;28;20494;-87
2022/01/10 12:46:44;;;;;;;23.80;16.87;;;5.80;68.90;;;;;;5016145;28;20128;-87
2022/01/10 12:49:12;;;;;;;23.67;14.47;;;5.80;68.90;;;;;;5033148;28;20040;-87